Time;durP1;ratioP1;P1;durP2;ratioP2;P2;SDS_P1;SDS_P2;PMS_P1;PMS_P2;Temp;Humidity;BMP_temperature;BMP_pressure;BME280_temperature;BME280_humidity;BME280_pressure;Samples;Min_cycle;Max_cycle;Signal;HPM_P1;HPM_P2
2023/03/05 00:01:40;;;;;;;30.70;22.77;;;5.20;99.90;;;;;;4895171;29;20207;-74
2023/03/05 00:04:13;;;;;;;26.90;21.65;;;5.10;99.90;;;;;;4887742;29;20218;-73
2023/03/05 00:06:42;;;;;;;28.95;20.17;;;5.20;99.90;;;;;;4893429;29;20313;-76
2023/03/05 00:09:10;;;;;;;33.70;20.00;;;5.20;99.90;;;;;;4890045;29;20234;-73
2023/03/05 00:11:38;;;;;;;24.85;17.77;;;5.10;99.90;;;;;;4892358;29;20205;-75
2023/03/05 00:14:07;;;;;;;22.33;18.08;;;5.20;99.90;;;;;;4888395;29;20197;-75
2023/03/05 00:16:35;;;;;;;27.73;18.98;;;5.20;99.90;;;;;;4891402;29;20203;-75
2023/03/05 00:19:04;;;;;;;29.42;21.05;;;5.20;99.90;;;;;;4893551;29;20226;-75
2023/03/05 00:21:36;;;;;;;28.73;21.58;;;5.20;99.90;;;;;;4890409;29;20221;-75
2023/03/05 00:24:08;;;;;;;30.70;21.15;;;5.20;99.90;;;;;;4887528;29;20228;-74
2023/03/05 00:26:38;;;;;;;27.13;19.13;;;5.20;99.90;;;;;;4886033;29;20203;-74
2023/03/05 00:29:07;;;;;;;27.25;20.20;;;5.30;99.90;;;;;;4884833;29;20616;-77
2023/03/05 00:31:37;;;;;;;32.25;19.90;;;5.30;99.90;;;;;;4887889;29;20210;-76
2023/03/05 00:34:09;;;;;;;25.63;21.40;;;5.20;99.90;;;;;;4891425;29;20210;-75
2023/03/05 00:36:43;;;;;;;38.17;24.02;;;5.30;99.90;;;;;;4875592;29;20206;-74
2023/03/05 00:39:11;;;;;;;27.23;19.38;;;5.30;99.90;;;;;;4887854;29;20225;-73
2023/03/05 00:41:40;;;;;;;46.63;26.63;;;5.30;99.90;;;;;;4890623;29;20216;-75
2023/03/05 00:44:08;;;;;;;31.20;22.52;;;5.30;99.90;;;;;;4890826;29;20580;-74
2023/03/05 00:46:37;;;;;;;30.23;20.40;;;5.30;99.90;;;;;;4890255;29;20223;-77
2023/03/05 00:49:05;;;;;;;26.15;18.70;;;5.30;99.90;;;;;;4890300;29;20230;-74
2023/03/05 00:51:34;;;;;;;29.40;20.60;;;5.30;99.90;;;;;;4891381;29;20205;-74
2023/03/05 00:54:04;;;;;;;27.42;19.00;;;5.30;99.90;;;;;;4889411;29;20203;-74
2023/03/05 00:56:32;;;;;;;23.60;18.17;;;5.30;99.90;;;;;;4879849;29;20202;-75
2023/03/05 00:59:01;;;;;;;23.98;18.05;;;5.30;99.90;;;;;;4888274;29;20226;-76
2023/03/05 01:01:29;;;;;;;29.77;19.30;;;5.30;99.90;;;;;;4885149;29;20236;-77
2023/03/05 01:03:58;;;;;;;27.30;18.42;;;5.30;99.90;;;;;;4892485;29;20730;-76
2023/03/05 01:06:27;;;;;;;22.63;17.25;;;5.30;99.90;;;;;;4872171;29;20206;-74
2023/03/05 01:08:56;;;;;;;30.20;18.67;;;5.20;99.90;;;;;;4894028;29;20639;-75
2023/03/05 01:11:26;;;;;;;25.90;19.67;;;5.30;99.90;;;;;;4877585;29;20694;-78
2023/03/05 01:13:54;;;;;;;24.30;16.63;;;5.30;99.90;;;;;;4884763;29;20944;-76
2023/03/05 01:16:22;;;;;;;26.20;18.80;;;5.30;99.90;;;;;;4891388;29;20208;-73
2023/03/05 01:18:50;;;;;;;24.75;18.33;;;5.30;99.90;;;;;;4887863;29;20573;-74
2023/03/05 01:21:19;;;;;;;25.23;18.05;;;5.20;99.90;;;;;;4887313;29;20209;-73
2023/03/05 01:23:47;;;;;;;25.52;18.48;;;5.20;99.90;;;;;;4891307;29;20244;-73
2023/03/05 01:26:15;;;;;;;30.50;21.70;;;5.20;99.90;;;;;;4887570;29;20202;-75
2023/03/05 01:28:44;;;;;;;31.42;21.63;;;5.10;99.90;;;;;;4883405;29;20309;-75
2023/03/05 01:31:13;;;;;;;26.17;21.13;;;5.20;99.90;;;;;;4873132;29;20234;-74
2023/03/05 01:33:41;;;;;;;29.17;21.25;;;5.10;99.90;;;;;;4891555;29;20289;-73
2023/03/05 01:36:13;;;;;;;28.80;21.75;;;5.20;99.90;;;;;;4888938;29;20212;-74
2023/03/05 01:38:42;;;;;;;24.10;18.25;;;5.20;99.90;;;;;;4892654;29;21501;-73
2023/03/05 01:41:11;;;;;;;29.02;20.02;;;5.20;99.90;;;;;;4896188;29;20347;-73
2023/03/05 01:43:40;;;;;;;25.25;19.90;;;5.20;99.90;;;;;;4895246;29;20217;-74
2023/03/05 01:46:29;;;;;;;29.15;19.83;;;5.10;99.90;;;;;;4893156;29;20216;-76
2023/03/05 01:49:06;;;;;;;32.40;21.70;;;5.00;99.90;;;;;;4890306;29;20335;-76
2023/03/05 01:51:39;;;;;;;31.30;20.07;;;5.00;99.90;;;;;;4896366;29;20276;-73
2023/03/05 01:54:09;;;;;;;28.65;20.65;;;5.00;99.90;;;;;;4894422;29;20461;-77
2023/03/05 01:56:39;;;;;;;31.90;20.65;;;5.00;99.90;;;;;;4892796;29;20221;-75
2023/03/05 01:59:07;;;;;;;26.45;20.33;;;5.00;99.90;;;;;;4893330;29;20293;-76
2023/03/05 02:01:41;;;;;;;26.27;19.88;;;5.00;99.90;;;;;;4894488;29;20622;-74
2023/03/05 02:04:11;;;;;;;22.90;19.08;;;5.10;99.90;;;;;;4895779;29;20256;-75
2023/03/05 02:06:42;;;;;;;26.45;17.88;;;5.10;99.90;;;;;;4892492;29;20206;-75
2023/03/05 02:09:11;;;;;;;27.33;18.23;;;5.10;99.90;;;;;;4890852;29;20271;-74
2023/03/05 02:11:40;;;;;;;31.70;17.70;;;5.10;99.90;;;;;;4891228;29;20225;-73
2023/03/05 02:14:09;;;;;;;21.63;16.50;;;5.10;99.90;;;;;;4890525;29;20302;-73
2023/03/05 02:16:39;;;;;;;24.40;19.00;;;5.10;99.90;;;;;;4893728;29;20226;-76
2023/03/05 02:19:10;;;;;;;27.80;18.97;;;5.20;99.90;;;;;;4886484;29;20221;-74
2023/03/05 02:21:42;;;;;;;24.00;17.58;;;5.20;99.90;;;;;;4887340;29;20470;-73
2023/03/05 02:24:12;;;;;;;26.52;18.92;;;5.20;99.90;;;;;;4888857;29;20222;-74
2023/03/05 02:26:41;;;;;;;27.48;19.00;;;5.20;99.90;;;;;;4888658;29;20206;-77
2023/03/05 02:29:14;;;;;;;25.35;19.77;;;5.20;99.90;;;;;;4890133;29;20231;-77
2023/03/05 02:31:42;;;;;;;31.00;20.48;;;5.20;99.90;;;;;;4891878;29;20203;-76
2023/03/05 02:34:10;;;;;;;24.92;18.08;;;5.20;99.90;;;;;;4894067;29;20201;-76
2023/03/05 02:36:40;;;;;;;26.58;18.73;;;5.20;99.90;;;;;;4893064;29;20203;-75
2023/03/05 02:39:09;;;;;;;23.20;19.58;;;5.20;99.90;;;;;;4889759;29;20573;-75
2023/03/05 02:41:37;;;;;;;29.88;19.40;;;5.20;99.90;;;;;;4893621;29;20592;-74
2023/03/05 02:44:05;;;;;;;21.67;18.40;;;5.20;99.90;;;;;;4894214;29;20209;-75
2023/03/05 02:46:33;;;;;;;27.25;21.77;;;5.20;99.90;;;;;;4890100;29;20210;-73
2023/03/05 02:49:01;;;;;;;30.10;19.58;;;5.20;99.90;;;;;;4887496;29;20302;-73
2023/03/05 02:51:29;;;;;;;28.48;19.65;;;5.20;99.90;;;;;;4886516;29;20279;-74
2023/03/05 02:53:59;;;;;;;34.50;21.98;;;5.10;99.90;;;;;;4871985;29;20205;-75
2023/03/05 02:56:27;;;;;;;28.17;20.95;;;5.10;99.90;;;;;;4891997;29;20604;-73
2023/03/05 02:58:55;;;;;;;34.17;20.85;;;5.10;99.90;;;;;;4896754;29;20708;-74
2023/03/05 03:01:26;;;;;;;28.10;19.55;;;5.20;99.90;;;;;;4891967;29;20203;-74
2023/03/05 03:03:54;;;;;;;26.20;20.02;;;5.10;99.90;;;;;;4892138;29;20221;-73
2023/03/05 03:06:23;;;;;;;32.90;21.45;;;5.10;99.90;;;;;;4893410;29;20221;-74
2023/03/05 03:08:51;;;;;;;29.58;19.77;;;5.10;99.90;;;;;;4892476;29;20233;-76
2023/03/05 03:11:20;;;;;;;26.48;20.25;;;5.10;99.90;;;;;;4890608;29;21015;-74
2023/03/05 03:13:48;;;;;;;28.35;21.25;;;5.20;99.90;;;;;;4888211;29;20217;-73
2023/03/05 03:16:17;;;;;;;28.73;20.63;;;5.10;99.90;;;;;;4893469;29;20217;-74
2023/03/05 03:18:47;;;;;;;28.98;18.80;;;5.10;99.90;;;;;;4871458;29;20224;-73
2023/03/05 03:21:20;;;;;;;32.20;21.33;;;5.10;99.90;;;;;;4893232;29;20205;-75
2023/03/05 03:23:49;;;;;;;26.25;19.13;;;5.10;99.90;;;;;;4889500;29;20201;-72
2023/03/05 03:26:17;;;;;;;31.13;19.60;;;5.10;99.90;;;;;;4893098;29;20849;-74
2023/03/05 03:28:47;;;;;;;25.77;19.55;;;5.10;99.90;;;;;;4891622;29;20220;-73
2023/03/05 03:31:15;;;;;;;29.13;21.25;;;5.10;99.90;;;;;;4891983;29;20213;-73
2023/03/05 03:33:44;;;;;;;27.58;19.45;;;5.20;99.90;;;;;;4890322;29;20256;-74
2023/03/05 03:36:12;;;;;;;29.95;20.52;;;5.10;99.90;;;;;;4888264;29;20202;-72
2023/03/05 03:38:40;;;;;;;28.83;18.95;;;5.10;99.90;;;;;;4891332;29;20229;-74
2023/03/05 03:41:09;;;;;;;28.40;20.08;;;5.10;99.90;;;;;;4886137;29;20205;-75
2023/03/05 03:43:37;;;;;;;24.88;19.20;;;5.10;99.90;;;;;;4878036;29;20199;-74
2023/03/05 03:46:07;;;;;;;27.92;19.63;;;5.10;99.90;;;;;;4888256;29;20660;-74
2023/03/05 03:48:36;;;;;;;30.08;20.75;;;5.20;99.90;;;;;;4886625;29;20227;-75
2023/03/05 03:51:06;;;;;;;30.67;19.98;;;5.20;99.90;;;;;;4886009;29;20240;-76
2023/03/05 03:53:34;;;;;;;30.17;19.60;;;5.20;99.90;;;;;;4889196;29;20399;-75
2023/03/05 03:56:03;;;;;;;26.90;20.40;;;5.20;99.90;;;;;;4890739;29;20198;-77
2023/03/05 03:58:31;;;;;;;30.23;19.98;;;5.20;99.90;;;;;;4887682;29;20227;-76
2023/03/05 04:00:59;;;;;;;23.75;17.98;;;5.10;99.90;;;;;;4891111;29;21155;-75
2023/03/05 04:03:29;;;;;;;27.48;19.02;;;5.10;99.90;;;;;;4891350;29;20288;-75
2023/03/05 04:05:57;;;;;;;27.08;18.80;;;5.20;99.90;;;;;;4887996;29;20221;-77
2023/03/05 04:08:25;;;;;;;25.40;17.42;;;5.10;99.90;;;;;;4893629;29;20232;-76
2023/03/05 04:10:53;;;;;;;25.88;18.17;;;5.10;99.90;;;;;;4888981;29;20313;-75
2023/03/05 04:13:21;;;;;;;27.13;17.92;;;5.10;99.90;;;;;;4892069;29;20811;-77
2023/03/05 04:15:50;;;;;;;23.63;17.85;;;5.10;99.90;;;;;;4891729;29;20203;-75
2023/03/05 04:18:18;;;;;;;25.80;19.42;;;5.10;99.90;;;;;;4886580;29;20216;-76
2023/03/05 04:20:47;;;;;;;24.88;18.92;;;5.10;99.90;;;;;;4888932;29;20205;-75
2023/03/05 04:23:16;;;;;;;27.80;19.30;;;5.10;99.90;;;;;;4890152;29;20223;-75
2023/03/05 04:25:44;;;;;;;21.73;17.63;;;5.10;99.90;;;;;;4893365;29;20715;-75
2023/03/05 04:28:12;;;;;;;28.35;18.08;;;5.10;99.90;;;;;;4892317;29;20214;-77
2023/03/05 04:30:41;;;;;;;26.75;19.52;;;5.10;99.90;;;;;;4888514;29;20210;-75
2023/03/05 04:33:09;;;;;;;27.70;18.95;;;5.10;99.90;;;;;;4887144;29;20210;-75
2023/03/05 04:35:37;;;;;;;24.75;19.70;;;5.10;99.90;;;;;;4887988;29;20202;-75
2023/03/05 04:38:07;;;;;;;26.17;18.27;;;5.10;99.90;;;;;;4889566;29;20236;-75
2023/03/05 04:40:35;;;;;;;23.25;18.42;;;5.10;99.90;;;;;;4886752;29;20241;-73
2023/03/05 04:43:03;;;;;;;23.30;18.42;;;5.10;99.90;;;;;;4889942;29;20708;-73
2023/03/05 04:45:32;;;;;;;26.05;18.83;;;5.10;99.90;;;;;;4891271;29;20221;-74
2023/03/05 04:48:02;;;;;;;25.75;20.00;;;5.10;99.90;;;;;;4886042;29;20225;-74
2023/03/05 04:50:30;;;;;;;22.70;17.92;;;5.10;99.90;;;;;;4886787;29;20192;-76
2023/03/05 04:52:59;;;;;;;24.25;19.17;;;5.10;99.90;;;;;;4887259;29;20226;-75
2023/03/05 04:55:28;;;;;;;27.45;18.80;;;5.10;99.90;;;;;;4890124;29;20398;-75
2023/03/05 04:57:56;;;;;;;29.70;18.30;;;5.00;99.90;;;;;;4892431;29;20225;-75
2023/03/05 05:00:25;;;;;;;25.50;19.00;;;5.10;99.90;;;;;;4889542;29;20288;-76
2023/03/05 05:02:53;;;;;;;25.27;19.90;;;5.10;99.90;;;;;;4874806;29;20202;-74
2023/03/05 05:05:23;;;;;;;26.98;19.05;;;5.10;99.90;;;;;;4882050;29;20290;-75
2023/03/05 05:07:55;;;;;;;21.60;17.73;;;5.10;99.90;;;;;;4888957;29;20469;-74
2023/03/05 05:10:26;;;;;;;22.75;16.95;;;5.10;99.90;;;;;;4890379;29;20205;-76
2023/03/05 05:12:56;;;;;;;21.95;16.75;;;5.10;99.90;;;;;;4890678;29;20213;-74
2023/03/05 05:15:24;;;;;;;26.63;19.67;;;5.10;99.90;;;;;;4889823;29;20221;-74
2023/03/05 05:17:53;;;;;;;27.17;18.92;;;5.00;99.90;;;;;;4889791;29;20368;-77
2023/03/05 05:20:21;;;;;;;20.25;17.25;;;5.00;99.90;;;;;;4890093;29;20881;-74
2023/03/05 05:22:49;;;;;;;25.70;17.95;;;5.00;99.90;;;;;;4888320;29;20674;-78
2023/03/05 05:25:17;;;;;;;23.02;17.35;;;5.10;99.90;;;;;;4887666;29;20228;-73
2023/03/05 05:27:45;;;;;;;25.92;18.23;;;5.10;99.90;;;;;;4889491;29;20231;-76
2023/03/05 05:30:15;;;;;;;20.50;17.58;;;5.00;99.90;;;;;;4889119;29;20255;-74
2023/03/05 05:32:43;;;;;;;26.77;16.88;;;5.00;99.90;;;;;;4883744;29;20230;-75
2023/03/05 05:35:12;;;;;;;21.35;17.25;;;5.00;99.90;;;;;;4884158;29;20232;-74
2023/03/05 05:37:40;;;;;;;22.67;18.55;;;5.00;99.90;;;;;;4886063;29;20284;-73
2023/03/05 05:40:09;;;;;;;21.50;17.20;;;5.00;99.90;;;;;;4870562;29;20296;-76
2023/03/05 05:42:38;;;;;;;20.33;17.02;;;5.00;99.90;;;;;;4855865;29;20261;-77
2023/03/05 05:45:07;;;;;;;27.52;18.05;;;5.00;99.90;;;;;;4881085;29;20218;-76
2023/03/05 05:47:36;;;;;;;23.65;16.35;;;5.10;99.90;;;;;;4885319;29;20228;-75
2023/03/05 05:50:06;;;;;;;22.75;17.38;;;5.00;99.90;;;;;;4893180;29;20208;-74
2023/03/05 05:52:34;;;;;;;20.77;15.88;;;5.00;99.90;;;;;;4887868;29;20612;-73
2023/03/05 05:55:03;;;;;;;26.52;18.75;;;5.00;99.90;;;;;;4884531;29;20213;-75
2023/03/05 05:57:31;;;;;;;20.55;15.82;;;5.00;99.90;;;;;;4890595;29;20209;-75
2023/03/05 05:59:59;;;;;;;21.25;16.85;;;5.00;99.90;;;;;;4888889;29;20198;-73
2023/03/05 06:02:27;;;;;;;24.60;17.73;;;5.00;99.90;;;;;;4890284;29;20683;-72
2023/03/05 06:04:56;;;;;;;22.42;17.48;;;5.00;99.90;;;;;;4889014;29;20287;-75
2023/03/05 06:07:25;;;;;;;25.17;17.17;;;5.00;99.90;;;;;;4885018;29;20312;-74
2023/03/05 06:09:53;;;;;;;24.60;17.50;;;5.00;99.90;;;;;;4886170;29;20651;-74
2023/03/05 06:12:21;;;;;;;23.75;17.65;;;5.00;99.90;;;;;;4884688;29;20208;-75
2023/03/05 06:14:49;;;;;;;25.02;19.02;;;5.00;99.90;;;;;;4886948;29;20194;-73
2023/03/05 06:17:17;;;;;;;25.80;19.70;;;5.00;99.90;;;;;;4884941;29;20206;-76
2023/03/05 06:19:58;;;;;;;28.88;18.90;;;5.00;99.90;;;;;;4884834;29;20561;-74
2023/03/05 06:22:26;;;;;;;21.45;17.85;;;5.00;99.90;;;;;;4886988;29;20593;-75
2023/03/05 06:24:54;;;;;;;22.40;16.75;;;5.00;99.90;;;;;;4894226;29;20244;-74
2023/03/05 06:27:22;;;;;;;22.15;17.80;;;5.00;99.90;;;;;;4887907;29;20695;-74
2023/03/05 06:29:53;;;;;;;20.88;17.27;;;5.10;99.90;;;;;;4890065;29;20204;-74
2023/03/05 06:32:21;;;;;;;24.33;18.83;;;5.10;99.90;;;;;;4889828;29;20232;-76
2023/03/05 06:34:49;;;;;;;23.13;17.38;;;5.10;99.90;;;;;;4887560;29;20216;-74
2023/03/05 06:37:19;;;;;;;30.98;19.10;;;5.00;99.90;;;;;;4884271;29;20206;-74
2023/03/05 06:39:47;;;;;;;24.80;18.80;;;5.10;99.90;;;;;;4886756;29;20212;-76
2023/03/05 06:42:16;;;;;;;24.95;18.30;;;5.00;99.90;;;;;;4881087;29;20623;-78
2023/03/05 06:44:45;;;;;;;20.83;17.67;;;5.00;99.90;;;;;;4885851;29;20210;-78
2023/03/05 06:47:15;;;;;;;25.25;19.02;;;5.10;99.90;;;;;;4891642;29;20242;-73
2023/03/05 06:49:43;;;;;;;27.02;18.23;;;5.10;99.90;;;;;;4888310;29;20237;-73
2023/03/05 06:52:11;;;;;;;22.30;17.55;;;5.10;99.90;;;;;;4888246;29;20308;-74
2023/03/05 06:54:41;;;;;;;27.73;19.80;;;5.00;99.90;;;;;;4893418;29;20293;-72
2023/03/05 06:57:10;;;;;;;28.38;19.50;;;5.00;99.90;;;;;;4890259;29;20205;-74
2023/03/05 06:59:38;;;;;;;23.48;17.65;;;5.10;99.90;;;;;;4888578;29;20208;-75
2023/03/05 07:02:09;;;;;;;22.00;17.70;;;5.10;99.90;;;;;;4890699;29;20203;-74
2023/03/05 07:04:37;;;;;;;25.88;19.30;;;5.10;99.90;;;;;;4895202;29;20207;-74
2023/03/05 07:07:06;;;;;;;31.02;19.35;;;5.10;99.90;;;;;;4890777;29;20225;-75
2023/03/05 07:09:34;;;;;;;21.75;17.45;;;5.10;99.90;;;;;;4893825;29;20995;-75
2023/03/05 07:12:04;;;;;;;18.70;16.70;;;5.10;99.90;;;;;;4868845;29;20958;-75
2023/03/05 07:14:32;;;;;;;22.70;18.98;;;5.10;99.90;;;;;;4888494;29;20206;-74
2023/03/05 07:17:00;;;;;;;22.67;17.95;;;5.10;99.90;;;;;;4892325;29;20261;-75
2023/03/05 07:19:28;;;;;;;26.50;18.33;;;5.20;99.90;;;;;;4872038;29;20199;-75
2023/03/05 07:21:56;;;;;;;23.45;18.90;;;5.20;99.90;;;;;;4887854;29;20203;-74
2023/03/05 07:24:28;;;;;;;22.10;17.98;;;5.20;99.90;;;;;;4892617;29;20212;-74
2023/03/05 07:26:57;;;;;;;20.83;18.58;;;5.20;99.90;;;;;;4887066;29;20228;-74
2023/03/05 07:29:27;;;;;;;22.05;18.00;;;5.20;99.90;;;;;;4887807;29;20227;-75
2023/03/05 07:31:56;;;;;;;21.60;17.48;;;5.30;99.90;;;;;;4888391;29;20284;-73
2023/03/05 07:34:24;;;;;;;19.27;16.33;;;5.30;99.90;;;;;;4874406;29;20257;-75
2023/03/05 07:36:54;;;;;;;19.45;17.48;;;5.30;99.90;;;;;;4881565;29;20466;-74
2023/03/05 07:39:22;;;;;;;20.85;17.23;;;5.30;99.90;;;;;;4884843;29;20218;-73
2023/03/05 07:41:51;;;;;;;18.33;15.55;;;5.30;99.90;;;;;;4883073;29;20292;-74
2023/03/05 07:44:19;;;;;;;20.15;16.48;;;5.40;99.90;;;;;;4883782;29;20294;-76
2023/03/05 07:46:49;;;;;;;43.92;17.05;;;5.40;99.90;;;;;;4885202;29;20245;-78
2023/03/05 07:49:17;;;;;;;20.17;16.33;;;5.40;99.90;;;;;;4887017;29;20222;-75
2023/03/05 07:51:45;;;;;;;20.10;15.70;;;5.40;99.90;;;;;;4892219;29;20655;-75
2023/03/05 07:54:13;;;;;;;23.08;16.90;;;5.40;99.90;;;;;;4888406;29;20609;-75
2023/03/05 07:56:41;;;;;;;18.48;16.58;;;5.40;99.90;;;;;;4891527;29;20211;-74
2023/03/05 07:59:12;;;;;;;24.55;15.85;;;5.40;99.90;;;;;;4888987;29;20229;-75
2023/03/05 08:01:40;;;;;;;20.95;17.67;;;5.30;99.90;;;;;;4889342;29;20204;-76
2023/03/05 08:04:11;;;;;;;20.42;16.58;;;5.40;99.90;;;;;;4890817;29;20206;-76
2023/03/05 08:06:41;;;;;;;19.75;16.80;;;5.40;99.90;;;;;;4893849;29;20213;-74
2023/03/05 08:09:09;;;;;;;19.23;16.70;;;5.50;99.90;;;;;;4892706;29;20726;-76
2023/03/05 08:11:37;;;;;;;19.83;16.50;;;5.50;99.90;;;;;;4890468;29;20221;-75
2023/03/05 08:14:05;;;;;;;22.48;16.50;;;5.50;99.90;;;;;;4892905;29;20266;-76
2023/03/05 08:16:34;;;;;;;24.02;17.73;;;5.60;99.90;;;;;;4896876;29;20225;-70
2023/03/05 08:19:02;;;;;;;20.38;17.10;;;5.60;99.90;;;;;;4893809;29;20233;-71
2023/03/05 08:21:34;;;;;;;18.52;16.58;;;5.60;99.90;;;;;;4889131;29;20276;-72
2023/03/05 08:24:03;;;;;;;21.70;16.80;;;5.60;99.90;;;;;;4886995;29;20244;-71
2023/03/05 08:26:33;;;;;;;21.85;16.30;;;5.70;99.90;;;;;;4891613;29;20199;-74
2023/03/05 08:29:02;;;;;;;25.13;17.63;;;5.70;99.90;;;;;;4893081;29;20713;-74
2023/03/05 08:31:32;;;;;;;19.13;16.65;;;5.70;99.90;;;;;;4889428;29;20471;-75
2023/03/05 08:34:01;;;;;;;20.35;17.20;;;5.80;99.90;;;;;;4889198;29;20254;-74
2023/03/05 08:36:30;;;;;;;22.52;16.73;;;5.80;99.90;;;;;;4891179;29;20667;-74
2023/03/05 08:38:59;;;;;;;22.38;17.98;;;5.70;99.90;;;;;;4893378;29;20711;-76
2023/03/05 08:41:28;;;;;;;21.85;16.73;;;5.80;99.90;;;;;;4888651;29;20210;-78
2023/03/05 08:43:56;;;;;;;28.33;16.77;;;5.90;99.90;;;;;;4893111;29;20266;-75
2023/03/05 08:46:24;;;;;;;19.25;16.50;;;5.90;99.90;;;;;;4886805;29;20297;-77
2023/03/05 08:48:52;;;;;;;19.90;17.88;;;5.90;99.90;;;;;;4894960;29;20231;-74
2023/03/05 08:51:24;;;;;;;20.52;17.90;;;5.90;99.90;;;;;;4887926;29;20217;-76
2023/03/05 08:53:53;;;;;;;21.92;16.40;;;5.80;99.90;;;;;;4890667;29;20220;-74
2023/03/05 08:56:24;;;;;;;20.70;16.20;;;5.80;99.90;;;;;;4890038;29;20381;-74
2023/03/05 08:58:52;;;;;;;19.30;16.77;;;5.90;99.90;;;;;;4894752;29;20226;-76
2023/03/05 09:01:21;;;;;;;17.48;15.88;;;5.90;99.90;;;;;;4891834;29;20332;-75
2023/03/05 09:03:49;;;;;;;18.10;16.17;;;5.90;99.90;;;;;;4886291;29;20209;-76
2023/03/05 09:06:17;;;;;;;19.97;16.53;;;5.90;99.90;;;;;;4890956;29;21822;-75
2023/03/05 09:08:46;;;;;;;16.95;15.30;;;5.90;99.90;;;;;;4890230;29;20487;-75
2023/03/05 09:11:14;;;;;;;19.33;16.92;;;6.10;99.90;;;;;;4872397;29;20230;-75
2023/03/05 09:13:44;;;;;;;21.35;17.70;;;6.00;99.90;;;;;;4885117;29;20214;-76
2023/03/05 09:16:14;;;;;;;23.23;17.42;;;6.00;99.90;;;;;;4888190;29;20214;-76
2023/03/05 09:18:43;;;;;;;21.03;18.20;;;6.10;99.90;;;;;;4888016;29;20231;-74
2023/03/05 09:21:13;;;;;;;20.80;16.57;;;6.10;99.90;;;;;;4896987;29;20446;-73
2023/03/05 09:23:43;;;;;;;19.98;17.00;;;6.20;99.90;;;;;;4885473;29;20457;-76
2023/03/05 09:26:14;;;;;;;19.57;15.80;;;6.30;99.90;;;;;;4887823;29;20194;-75
2023/03/05 09:28:43;;;;;;;19.03;17.10;;;6.40;99.90;;;;;;4886988;29;20895;-75
2023/03/05 09:31:12;;;;;;;20.10;16.30;;;6.30;99.90;;;;;;4892849;29;20454;-77
2023/03/05 09:33:40;;;;;;;18.03;15.70;;;6.40;99.90;;;;;;4883185;29;20465;-76
2023/03/05 09:36:19;;;;;;;18.17;16.13;;;6.50;99.90;;;;;;4889504;29;20522;-76
2023/03/05 09:38:47;;;;;;;19.47;16.47;;;6.50;99.90;;;;;;4886850;29;20485;-75
2023/03/05 09:41:21;;;;;;;18.10;16.40;;;6.50;99.90;;;;;;4867013;29;20467;-75
2023/03/05 09:43:59;;;;;;;18.13;16.23;;;6.40;99.90;;;;;;4891744;29;20466;-76
2023/03/05 09:46:37;;;;;;;20.30;17.00;;;6.60;99.90;;;;;;4891720;29;20493;-74
2023/03/05 09:49:16;;;;;;;17.63;15.73;;;6.50;99.90;;;;;;4889729;29;20502;-77
2023/03/05 09:51:46;;;;;;;16.93;15.23;;;6.60;99.90;;;;;;4892421;29;20842;-75
2023/03/05 09:54:18;;;;;;;17.43;15.63;;;6.70;99.90;;;;;;4889107;29;20465;-77
2023/03/05 09:56:50;;;;;;;17.48;15.55;;;6.60;99.90;;;;;;4890075;29;20931;-76
2023/03/05 09:59:29;;;;;;;17.35;15.40;;;6.60;99.90;;;;;;4891533;29;20231;-77
2023/03/05 10:02:03;;;;;;;17.87;15.03;;;6.70;99.90;;;;;;4892450;29;20589;-75
2023/03/05 10:04:44;;;;;;;18.23;15.53;;;6.60;99.90;;;;;;4889594;29;20467;-76
2023/03/05 10:07:16;;;;;;;23.60;16.00;;;6.70;99.90;;;;;;4889649;29;20454;-78
2023/03/05 10:09:48;;;;;;;21.93;17.23;;;6.70;99.90;;;;;;4895856;29;20486;-78
2023/03/05 10:12:26;;;;;;;18.97;15.97;;;6.80;99.90;;;;;;4887155;29;20558;-78
2023/03/05 10:14:56;;;;;;;19.23;15.30;;;6.70;99.90;;;;;;4892781;29;20474;-77
2023/03/05 10:17:45;;;;;;;17.70;15.40;;;6.70;99.90;;;;;;4897419;29;20470;-77
2023/03/05 10:20:27;;;;;;;16.10;14.40;;;6.70;99.90;;;;;;4885408;29;20455;-75
2023/03/05 10:23:23;;;;;;;19.23;16.63;;;6.80;99.90;;;;;;4895890;29;20469;-79
2023/03/05 10:26:07;;;;;;;22.23;16.90;;;6.80;99.90;;;;;;4894772;29;21007;-80
2023/03/05 10:28:43;;;;;;;19.60;15.87;;;6.80;99.90;;;;;;4896182;29;20519;-78
2023/03/05 10:31:44;;;;;;;18.47;16.53;;;6.80;99.90;;;;;;4891159;29;20458;-77
2023/03/05 10:34:36;;;;;;;18.33;15.97;;;6.80;99.90;;;;;;4881768;29;20458;-77
2023/03/05 10:37:28;;;;;;;18.20;14.67;;;6.80;99.90;;;;;;4884474;29;20963;-77
2023/03/05 10:40:08;;;;;;;22.33;15.47;;;6.80;99.90;;;;;;4886402;29;20463;-75
2023/03/05 10:42:43;;;;;;;22.57;14.93;;;6.80;99.90;;;;;;4887289;29;20466;-76
2023/03/05 10:45:15;;;;;;;17.10;15.03;;;6.80;99.90;;;;;;4882065;29;20463;-79
2023/03/05 10:47:51;;;;;;;16.80;14.97;;;6.90;99.90;;;;;;4888181;29;20516;-75
2023/03/05 10:50:23;;;;;;;15.50;13.90;;;6.90;99.90;;;;;;4891941;29;20494;-79
2023/03/05 10:53:04;;;;;;;17.10;15.33;;;6.90;99.90;;;;;;4891274;29;20456;-79
2023/03/05 10:55:32;;;;;;;16.00;14.50;;;6.90;99.90;;;;;;4891485;29;20494;-77
2023/03/05 10:58:10;;;;;;;15.73;13.13;;;7.00;99.90;;;;;;4888674;29;21029;-77
2023/03/05 11:00:38;;;;;;;17.65;14.82;;;7.00;99.90;;;;;;4893392;29;20462;-76
2023/03/05 11:03:10;;;;;;;18.97;15.33;;;6.90;99.90;;;;;;4892633;29;20213;-76
2023/03/05 11:05:44;;;;;;;20.50;14.67;;;6.90;99.90;;;;;;4889513;29;20466;-76
2023/03/05 11:08:31;;;;;;;16.10;14.23;;;6.90;99.90;;;;;;4889945;29;20487;-77
2023/03/05 11:11:21;;;;;;;16.70;15.13;;;6.90;99.90;;;;;;4886807;29;20483;-75
2023/03/05 11:13:58;;;;;;;17.27;14.80;;;6.80;99.90;;;;;;4895652;29;20447;-77
2023/03/05 11:16:28;;;;;;;15.50;13.90;;;6.90;99.90;;;;;;4888668;29;20875;-77
2023/03/05 11:19:18;;;;;;;15.77;13.73;;;6.90;99.90;;;;;;4888474;29;20483;-76
2023/03/05 11:22:03;;;;;;;18.20;14.83;;;6.90;99.90;;;;;;4888282;29;20459;-77
2023/03/05 11:24:32;;;;;;;15.80;13.40;;;6.80;99.90;;;;;;4886141;29;20463;-75
2023/03/05 11:27:00;;;;;;;16.20;13.50;;;6.70;99.90;;;;;;4886338;29;20850;-78
2023/03/05 11:29:32;;;;;;;15.60;14.10;;;6.60;99.90;;;;;;4884224;29;20622;-75
2023/03/05 11:32:17;;;;;;;18.90;15.60;;;6.60;99.90;;;;;;4886564;29;20456;-77
2023/03/05 11:34:46;;;;;;;18.20;13.93;;;6.70;99.90;;;;;;4887377;29;20451;-76
2023/03/05 11:37:23;;;;;;;16.40;13.90;;;6.70;99.90;;;;;;4886935;29;20464;-75
2023/03/05 11:40:19;;;;;;;16.90;13.43;;;6.70;99.90;;;;;;4885124;29;20465;-77
2023/03/05 11:42:54;;;;;;;17.97;13.53;;;6.70;99.90;;;;;;4888047;29;20456;-77
2023/03/05 11:45:24;;;;;;;19.93;15.43;;;6.70;99.90;;;;;;4885171;29;20481;-77
2023/03/05 11:47:54;;;;;;;18.47;13.80;;;6.70;99.90;;;;;;4872726;29;20484;-77
2023/03/05 11:50:25;;;;;;;15.40;13.80;;;6.70;99.90;;;;;;4888540;29;20493;-79
2023/03/05 11:52:57;;;;;;;16.73;13.93;;;6.70;99.90;;;;;;4885079;29;20535;-79
2023/03/05 11:55:28;;;;;;;21.33;13.93;;;6.70;99.90;;;;;;4887817;29;20503;-77
2023/03/05 11:58:11;;;;;;;15.57;13.20;;;6.70;99.90;;;;;;4889845;29;21062;-75
2023/03/05 12:00:43;;;;;;;16.13;13.83;;;6.60;99.90;;;;;;4888557;29;20448;-75
2023/03/05 12:03:15;;;;;;;15.03;12.73;;;6.60;99.90;;;;;;4893711;29;20503;-76
2023/03/05 12:05:47;;;;;;;22.47;13.93;;;6.70;99.90;;;;;;4889836;29;20450;-74
2023/03/05 12:08:21;;;;;;;16.07;13.50;;;6.70;99.90;;;;;;4881171;29;20483;-74
2023/03/05 12:10:49;;;;;;;16.03;13.80;;;6.70;99.90;;;;;;4886826;29;20488;-78
2023/03/05 12:13:26;;;;;;;16.80;15.00;;;6.70;99.90;;;;;;4892951;29;20462;-78
2023/03/05 12:16:11;;;;;;;17.73;13.83;;;6.70;99.90;;;;;;4889995;29;20459;-79
2023/03/05 12:18:52;;;;;;;18.30;15.90;;;6.70;99.90;;;;;;4888354;29;21166;-77
2023/03/05 12:21:33;;;;;;;17.87;14.77;;;6.60;99.90;;;;;;4883393;29;20625;-75
2023/03/05 12:24:04;;;;;;;16.57;14.83;;;6.70;99.90;;;;;;4881898;29;20482;-77
2023/03/05 12:26:57;;;;;;;18.37;15.30;;;6.70;99.90;;;;;;4881700;29;20451;-74
2023/03/05 12:29:31;;;;;;;20.90;14.57;;;6.70;99.90;;;;;;4885559;29;20851;-76
2023/03/05 12:32:00;;;;;;;18.20;14.50;;;6.60;99.90;;;;;;4882613;29;20458;-75
2023/03/05 12:34:47;;;;;;;19.47;15.37;;;6.60;99.90;;;;;;4878838;29;20697;-75
2023/03/05 12:37:54;;;;;;;17.73;13.83;;;6.60;99.90;;;;;;4881453;29;21187;-76
2023/03/05 12:40:26;;;;;;;17.70;14.60;;;6.60;99.90;;;;;;4866968;29;20478;-76
2023/03/05 12:42:59;;;;;;;20.43;15.43;;;6.60;99.90;;;;;;4883804;29;21004;-76
2023/03/05 12:45:37;;;;;;;18.30;15.60;;;6.70;99.90;;;;;;4881613;29;20467;-75
2023/03/05 12:48:43;;;;;;;17.60;15.63;;;6.60;99.90;;;;;;4868405;29;20481;-77
2023/03/05 12:51:30;;;;;;;18.30;14.97;;;6.60;99.90;;;;;;4885335;29;21367;-79
2023/03/05 12:54:29;;;;;;;19.83;14.70;;;6.60;99.90;;;;;;4884482;29;20464;-78
2023/03/05 12:57:01;;;;;;;24.50;16.17;;;6.60;99.90;;;;;;4890514;29;20466;-75